sensor_id;sensor_type;location;lat;lon;timestamp;P1;durP1;ratioP1;P2;durP2;ratioP2
55784;SDS011;41709;52.536;5.688;2023-06-22T00:00:52;22.00;;;16.40;;
55784;SDS011;41709;52.536;5.688;2023-06-22T00:03:19;19.13;;;14.52;;
55784;SDS011;41709;52.536;5.688;2023-06-22T00:05:46;19.10;;;14.77;;
55784;SDS011;41709;52.536;5.688;2023-06-22T00:08:12;19.83;;;15.60;;
55784;SDS011;41709;52.536;5.688;2023-06-22T00:10:38;18.95;;;15.02;;
55784;SDS011;41709;52.536;5.688;2023-06-22T00:13:04;20.30;;;15.48;;
55784;SDS011;41709;52.536;5.688;2023-06-22T00:15:30;21.80;;;15.45;;
55784;SDS011;41709;52.536;5.688;2023-06-22T00:17:56;18.02;;;14.95;;
55784;SDS011;41709;52.536;5.688;2023-06-22T00:20:22;17.75;;;14.55;;
55784;SDS011;41709;52.536;5.688;2023-06-22T00:22:52;19.35;;;14.77;;
55784;SDS011;41709;52.536;5.688;2023-06-22T00:25:22;19.92;;;14.43;;
55784;SDS011;41709;52.536;5.688;2023-06-22T00:27:49;17.92;;;14.68;;
55784;SDS011;41709;52.536;5.688;2023-06-22T00:30:15;21.15;;;13.95;;
55784;SDS011;41709;52.536;5.688;2023-06-22T00:32:42;20.27;;;14.35;;
55784;SDS011;41709;52.536;5.688;2023-06-22T00:35:08;17.75;;;14.85;;
55784;SDS011;41709;52.536;5.688;2023-06-22T00:37:37;21.33;;;14.15;;
55784;SDS011;41709;52.536;5.688;2023-06-22T00:40:03;19.90;;;14.80;;
55784;SDS011;41709;52.536;5.688;2023-06-22T00:42:30;18.13;;;13.88;;
55784;SDS011;41709;52.536;5.688;2023-06-22T00:44:55;19.25;;;14.55;;
55784;SDS011;41709;52.536;5.688;2023-06-22T00:47:21;19.40;;;14.65;;
55784;SDS011;41709;52.536;5.688;2023-06-22T00:49:47;19.35;;;13.98;;
55784;SDS011;41709;52.536;5.688;2023-06-22T00:52:16;17.60;;;13.80;;
55784;SDS011;41709;52.536;5.688;2023-06-22T00:54:47;18.67;;;14.90;;
55784;SDS011;41709;52.536;5.688;2023-06-22T00:57:14;23.33;;;14.90;;
55784;SDS011;41709;52.536;5.688;2023-06-22T00:59:45;19.95;;;15.93;;
55784;SDS011;41709;52.536;5.688;2023-06-22T01:02:13;20.17;;;14.50;;
55784;SDS011;41709;52.536;5.688;2023-06-22T01:04:39;16.60;;;14.40;;
55784;SDS011;41709;52.536;5.688;2023-06-22T01:10:07;21.98;;;15.38;;
55784;SDS011;41709;52.536;5.688;2023-06-22T01:12:52;19.95;;;14.05;;
55784;SDS011;41709;52.536;5.688;2023-06-22T01:15:22;21.60;;;15.40;;
55784;SDS011;41709;52.536;5.688;2023-06-22T01:17:58;19.02;;;14.70;;
55784;SDS011;41709;52.536;5.688;2023-06-22T01:20:24;20.50;;;15.13;;
55784;SDS011;41709;52.536;5.688;2023-06-22T01:25:59;18.92;;;14.43;;
55784;SDS011;41709;52.536;5.688;2023-06-22T01:28:36;18.13;;;14.43;;
55784;SDS011;41709;52.536;5.688;2023-06-22T01:31:07;21.52;;;15.05;;
55784;SDS011;41709;52.536;5.688;2023-06-22T01:36:02;22.88;;;16.27;;
55784;SDS011;41709;52.536;5.688;2023-06-22T01:38:29;20.83;;;16.23;;
55784;SDS011;41709;52.536;5.688;2023-06-22T01:40:57;22.73;;;15.82;;
55784;SDS011;41709;52.536;5.688;2023-06-22T01:43:24;22.58;;;16.63;;
55784;SDS011;41709;52.536;5.688;2023-06-22T01:45:51;19.17;;;15.10;;
55784;SDS011;41709;52.536;5.688;2023-06-22T01:48:19;17.33;;;14.90;;
55784;SDS011;41709;52.536;5.688;2023-06-22T01:50:45;20.17;;;15.50;;
55784;SDS011;41709;52.536;5.688;2023-06-22T01:53:11;18.88;;;15.43;;
55784;SDS011;41709;52.536;5.688;2023-06-22T01:55:36;20.02;;;15.85;;
55784;SDS011;41709;52.536;5.688;2023-06-22T01:58:02;18.67;;;15.75;;
55784;SDS011;41709;52.536;5.688;2023-06-22T02:00:28;21.17;;;14.90;;
55784;SDS011;41709;52.536;5.688;2023-06-22T02:05:37;17.92;;;14.82;;
55784;SDS011;41709;52.536;5.688;2023-06-22T02:08:28;18.20;;;15.13;;
55784;SDS011;41709;52.536;5.688;2023-06-22T02:10:56;19.73;;;15.00;;
55784;SDS011;41709;52.536;5.688;2023-06-22T02:13:24;19.63;;;16.00;;
55784;SDS011;41709;52.536;5.688;2023-06-22T02:15:50;32.05;;;16.63;;
55784;SDS011;41709;52.536;5.688;2023-06-22T02:18:16;19.58;;;16.67;;
55784;SDS011;41709;52.536;5.688;2023-06-22T02:20:42;19.45;;;15.98;;
55784;SDS011;41709;52.536;5.688;2023-06-22T02:23:08;23.40;;;16.85;;
55784;SDS011;41709;52.536;5.688;2023-06-22T02:25:34;20.13;;;16.45;;
55784;SDS011;41709;52.536;5.688;2023-06-22T02:28:00;22.90;;;16.55;;
55784;SDS011;41709;52.536;5.688;2023-06-22T02:30:26;21.73;;;17.70;;
55784;SDS011;41709;52.536;5.688;2023-06-22T02:32:52;24.58;;;17.30;;
55784;SDS011;41709;52.536;5.688;2023-06-22T02:35:32;20.70;;;17.23;;
55784;SDS011;41709;52.536;5.688;2023-06-22T02:38:00;25.13;;;16.75;;
55784;SDS011;41709;52.536;5.688;2023-06-22T02:40:27;20.70;;;16.55;;
55784;SDS011;41709;52.536;5.688;2023-06-22T02:42:53;22.90;;;17.60;;
55784;SDS011;41709;52.536;5.688;2023-06-22T02:45:18;22.75;;;18.45;;
55784;SDS011;41709;52.536;5.688;2023-06-22T02:47:44;20.33;;;17.83;;
55784;SDS011;41709;52.536;5.688;2023-06-22T02:50:10;22.20;;;18.33;;
55784;SDS011;41709;52.536;5.688;2023-06-22T02:52:35;24.75;;;18.77;;
55784;SDS011;41709;52.536;5.688;2023-06-22T02:55:01;25.05;;;18.42;;
55784;SDS011;41709;52.536;5.688;2023-06-22T02:57:27;26.38;;;20.00;;
55784;SDS011;41709;52.536;5.688;2023-06-22T02:59:52;22.50;;;18.85;;
55784;SDS011;41709;52.536;5.688;2023-06-22T03:02:18;24.25;;;19.35;;
55784;SDS011;41709;52.536;5.688;2023-06-22T03:04:46;24.00;;;19.83;;
55784;SDS011;41709;52.536;5.688;2023-06-22T03:07:14;27.10;;;20.75;;
55784;SDS011;41709;52.536;5.688;2023-06-22T03:09:40;28.25;;;20.63;;
55784;SDS011;41709;52.536;5.688;2023-06-22T03:12:07;26.65;;;21.77;;
55784;SDS011;41709;52.536;5.688;2023-06-22T03:14:33;26.85;;;21.17;;
55784;SDS011;41709;52.536;5.688;2023-06-22T03:16:58;27.30;;;21.38;;
55784;SDS011;41709;52.536;5.688;2023-06-22T03:19:28;27.45;;;20.75;;
55784;SDS011;41709;52.536;5.688;2023-06-22T03:21:54;28.55;;;21.85;;
55784;SDS011;41709;52.536;5.688;2023-06-22T03:24:20;38.50;;;24.50;;
55784;SDS011;41709;52.536;5.688;2023-06-22T03:26:45;34.38;;;24.48;;
55784;SDS011;41709;52.536;5.688;2023-06-22T03:29:11;31.50;;;23.77;;
55784;SDS011;41709;52.536;5.688;2023-06-22T03:31:37;33.00;;;23.27;;
55784;SDS011;41709;52.536;5.688;2023-06-22T03:34:03;33.17;;;22.27;;
55784;SDS011;41709;52.536;5.688;2023-06-22T03:36:28;33.63;;;23.92;;
55784;SDS011;41709;52.536;5.688;2023-06-22T03:38:54;29.95;;;22.92;;
55784;SDS011;41709;52.536;5.688;2023-06-22T03:41:20;31.52;;;24.05;;
55784;SDS011;41709;52.536;5.688;2023-06-22T03:43:46;33.78;;;23.77;;
55784;SDS011;41709;52.536;5.688;2023-06-22T03:46:11;33.97;;;23.38;;
55784;SDS011;41709;52.536;5.688;2023-06-22T03:48:37;36.15;;;24.15;;
55784;SDS011;41709;52.536;5.688;2023-06-22T03:51:03;32.67;;;24.30;;
55784;SDS011;41709;52.536;5.688;2023-06-22T03:53:29;31.55;;;24.73;;
55784;SDS011;41709;52.536;5.688;2023-06-22T03:55:55;32.92;;;24.38;;
55784;SDS011;41709;52.536;5.688;2023-06-22T03:58:20;35.83;;;26.25;;
55784;SDS011;41709;52.536;5.688;2023-06-22T04:00:47;33.85;;;24.98;;
55784;SDS011;41709;52.536;5.688;2023-06-22T04:03:16;33.97;;;24.42;;
55784;SDS011;41709;52.536;5.688;2023-06-22T04:05:44;34.10;;;24.35;;
55784;SDS011;41709;52.536;5.688;2023-06-22T04:08:10;35.45;;;24.90;;
55784;SDS011;41709;52.536;5.688;2023-06-22T04:10:37;33.97;;;25.42;;
55784;SDS011;41709;52.536;5.688;2023-06-22T04:13:03;32.25;;;23.63;;
55784;SDS011;41709;52.536;5.688;2023-06-22T04:15:28;30.60;;;23.88;;
55784;SDS011;41709;52.536;5.688;2023-06-22T04:17:54;32.50;;;24.15;;
55784;SDS011;41709;52.536;5.688;2023-06-22T04:20:21;27.20;;;23.17;;
55784;SDS011;41709;52.536;5.688;2023-06-22T04:22:47;32.65;;;26.25;;
55784;SDS011;41709;52.536;5.688;2023-06-22T04:25:12;31.08;;;23.67;;
55784;SDS011;41709;52.536;5.688;2023-06-22T04:27:38;32.50;;;23.80;;
55784;SDS011;41709;52.536;5.688;2023-06-22T04:30:06;34.05;;;24.45;;
55784;SDS011;41709;52.536;5.688;2023-06-22T04:32:33;33.47;;;25.02;;
55784;SDS011;41709;52.536;5.688;2023-06-22T04:35:02;30.33;;;25.08;;
55784;SDS011;41709;52.536;5.688;2023-06-22T04:37:29;29.52;;;24.83;;
55784;SDS011;41709;52.536;5.688;2023-06-22T04:39:55;31.67;;;25.52;;
55784;SDS011;41709;52.536;5.688;2023-06-22T04:42:21;32.05;;;25.27;;
55784;SDS011;41709;52.536;5.688;2023-06-22T04:44:46;30.58;;;25.45;;
55784;SDS011;41709;52.536;5.688;2023-06-22T04:47:12;32.10;;;25.73;;
55784;SDS011;41709;52.536;5.688;2023-06-22T04:49:38;31.30;;;25.08;;
55784;SDS011;41709;52.536;5.688;2023-06-22T04:52:06;36.22;;;24.42;;
55784;SDS011;41709;52.536;5.688;2023-06-22T04:54:34;32.35;;;25.55;;
55784;SDS011;41709;52.536;5.688;2023-06-22T04:57:02;32.63;;;26.13;;
55784;SDS011;41709;52.536;5.688;2023-06-22T04:59:29;32.47;;;26.52;;
55784;SDS011;41709;52.536;5.688;2023-06-22T05:01:56;31.38;;;24.77;;
55784;SDS011;41709;52.536;5.688;2023-06-22T05:04:23;28.50;;;23.50;;
55784;SDS011;41709;52.536;5.688;2023-06-22T05:06:50;33.22;;;26.10;;
55784;SDS011;41709;52.536;5.688;2023-06-22T05:09:16;30.65;;;24.52;;
55784;SDS011;41709;52.536;5.688;2023-06-22T05:11:42;42.00;;;26.50;;
55784;SDS011;41709;52.536;5.688;2023-06-22T05:14:08;31.00;;;23.95;;
55784;SDS011;41709;52.536;5.688;2023-06-22T05:16:34;35.08;;;24.90;;
55784;SDS011;41709;52.536;5.688;2023-06-22T05:19:00;32.38;;;24.95;;
55784;SDS011;41709;52.536;5.688;2023-06-22T05:21:28;30.85;;;25.95;;
55784;SDS011;41709;52.536;5.688;2023-06-22T05:23:53;28.02;;;24.55;;
55784;SDS011;41709;52.536;5.688;2023-06-22T05:26:20;32.42;;;26.00;;
55784;SDS011;41709;52.536;5.688;2023-06-22T05:28:46;29.90;;;23.25;;
55784;SDS011;41709;52.536;5.688;2023-06-22T05:31:15;27.48;;;24.00;;
55784;SDS011;41709;52.536;5.688;2023-06-22T05:33:41;31.13;;;23.33;;
55784;SDS011;41709;52.536;5.688;2023-06-22T05:36:07;33.42;;;24.92;;
55784;SDS011;41709;52.536;5.688;2023-06-22T05:38:33;33.38;;;24.70;;
55784;SDS011;41709;52.536;5.688;2023-06-22T05:40:59;32.22;;;25.33;;
55784;SDS011;41709;52.536;5.688;2023-06-22T05:43:25;32.55;;;25.10;;
55784;SDS011;41709;52.536;5.688;2023-06-22T05:45:50;31.50;;;24.10;;
55784;SDS011;41709;52.536;5.688;2023-06-22T05:48:16;30.73;;;24.73;;
55784;SDS011;41709;52.536;5.688;2023-06-22T05:50:42;32.15;;;24.38;;
55784;SDS011;41709;52.536;5.688;2023-06-22T05:53:07;26.95;;;22.83;;
55784;SDS011;41709;52.536;5.688;2023-06-22T05:55:33;28.30;;;23.00;;
55784;SDS011;41709;52.536;5.688;2023-06-22T05:57:59;29.77;;;23.58;;
55784;SDS011;41709;52.536;5.688;2023-06-22T06:00:24;30.63;;;22.95;;
55784;SDS011;41709;52.536;5.688;2023-06-22T06:02:50;31.30;;;22.52;;
55784;SDS011;41709;52.536;5.688;2023-06-22T06:05:15;25.63;;;20.73;;
55784;SDS011;41709;52.536;5.688;2023-06-22T06:07:42;29.70;;;22.13;;
55784;SDS011;41709;52.536;5.688;2023-06-22T06:10:08;27.73;;;21.90;;
55784;SDS011;41709;52.536;5.688;2023-06-22T06:12:34;31.85;;;23.00;;
55784;SDS011;41709;52.536;5.688;2023-06-22T06:15:00;27.05;;;21.92;;
55784;SDS011;41709;52.536;5.688;2023-06-22T06:17:26;30.67;;;22.17;;
55784;SDS011;41709;52.536;5.688;2023-06-22T06:19:52;31.75;;;23.27;;
55784;SDS011;41709;52.536;5.688;2023-06-22T06:22:17;27.23;;;21.50;;
55784;SDS011;41709;52.536;5.688;2023-06-22T06:24:44;28.38;;;21.55;;
55784;SDS011;41709;52.536;5.688;2023-06-22T06:27:10;28.48;;;21.38;;
55784;SDS011;41709;52.536;5.688;2023-06-22T06:29:36;32.20;;;22.60;;
55784;SDS011;41709;52.536;5.688;2023-06-22T06:32:01;28.52;;;21.70;;
55784;SDS011;41709;52.536;5.688;2023-06-22T06:34:27;28.13;;;21.65;;
55784;SDS011;41709;52.536;5.688;2023-06-22T06:36:53;28.35;;;22.73;;
55784;SDS011;41709;52.536;5.688;2023-06-22T06:39:18;26.50;;;20.77;;
55784;SDS011;41709;52.536;5.688;2023-06-22T06:41:45;30.23;;;20.55;;
55784;SDS011;41709;52.536;5.688;2023-06-22T06:44:11;28.85;;;22.50;;
55784;SDS011;41709;52.536;5.688;2023-06-22T06:46:36;26.60;;;20.38;;
55784;SDS011;41709;52.536;5.688;2023-06-22T06:49:02;28.80;;;20.92;;
55784;SDS011;41709;52.536;5.688;2023-06-22T06:51:28;29.67;;;20.13;;
55784;SDS011;41709;52.536;5.688;2023-06-22T06:53:54;28.27;;;21.40;;
55784;SDS011;41709;52.536;5.688;2023-06-22T06:56:20;25.85;;;20.48;;
55784;SDS011;41709;52.536;5.688;2023-06-22T06:58:45;27.13;;;20.63;;
55784;SDS011;41709;52.536;5.688;2023-06-22T07:01:14;29.65;;;21.70;;
55784;SDS011;41709;52.536;5.688;2023-06-22T07:03:39;25.38;;;19.70;;
55784;SDS011;41709;52.536;5.688;2023-06-22T07:06:05;23.77;;;18.70;;
55784;SDS011;41709;52.536;5.688;2023-06-22T07:08:30;24.08;;;18.20;;
55784;SDS011;41709;52.536;5.688;2023-06-22T07:10:56;26.13;;;19.33;;
55784;SDS011;41709;52.536;5.688;2023-06-22T07:13:22;24.00;;;18.65;;
55784;SDS011;41709;52.536;5.688;2023-06-22T07:15:47;23.35;;;17.50;;
55784;SDS011;41709;52.536;5.688;2023-06-22T07:18:13;22.65;;;17.05;;
55784;SDS011;41709;52.536;5.688;2023-06-22T07:20:38;20.63;;;16.65;;
55784;SDS011;41709;52.536;5.688;2023-06-22T07:23:06;21.95;;;16.42;;
55784;SDS011;41709;52.536;5.688;2023-06-22T07:25:31;23.70;;;16.75;;
55784;SDS011;41709;52.536;5.688;2023-06-22T07:28:01;23.05;;;16.52;;
55784;SDS011;41709;52.536;5.688;2023-06-22T07:30:31;24.63;;;16.60;;
55784;SDS011;41709;52.536;5.688;2023-06-22T07:32:58;23.45;;;17.40;;
55784;SDS011;41709;52.536;5.688;2023-06-22T07:35:28;24.13;;;15.85;;
55784;SDS011;41709;52.536;5.688;2023-06-22T07:37:54;19.85;;;15.68;;
55784;SDS011;41709;52.536;5.688;2023-06-22T07:40:19;21.80;;;15.50;;
55784;SDS011;41709;52.536;5.688;2023-06-22T07:42:45;19.52;;;14.60;;
55784;SDS011;41709;52.536;5.688;2023-06-22T07:45:13;20.77;;;14.70;;
55784;SDS011;41709;52.536;5.688;2023-06-22T07:47:38;18.40;;;14.43;;
55784;SDS011;41709;52.536;5.688;2023-06-22T07:50:04;19.20;;;14.10;;
55784;SDS011;41709;52.536;5.688;2023-06-22T07:52:31;18.15;;;15.68;;
55784;SDS011;41709;52.536;5.688;2023-06-22T07:54:56;17.20;;;13.88;;
55784;SDS011;41709;52.536;5.688;2023-06-22T07:57:22;15.93;;;13.30;;
55784;SDS011;41709;52.536;5.688;2023-06-22T07:59:47;14.98;;;11.27;;
55784;SDS011;41709;52.536;5.688;2023-06-22T08:02:13;17.33;;;11.82;;
55784;SDS011;41709;52.536;5.688;2023-06-22T08:04:39;16.95;;;11.80;;
55784;SDS011;41709;52.536;5.688;2023-06-22T08:07:06;13.73;;;10.57;;
55784;SDS011;41709;52.536;5.688;2023-06-22T08:09:32;19.20;;;12.23;;
55784;SDS011;41709;52.536;5.688;2023-06-22T08:11:58;12.43;;;10.27;;
55784;SDS011;41709;52.536;5.688;2023-06-22T08:14:27;16.48;;;11.07;;
55784;SDS011;41709;52.536;5.688;2023-06-22T08:16:54;13.90;;;11.23;;
55784;SDS011;41709;52.536;5.688;2023-06-22T08:19:20;15.77;;;11.15;;
55784;SDS011;41709;52.536;5.688;2023-06-22T08:21:45;12.95;;;10.30;;
55784;SDS011;41709;52.536;5.688;2023-06-22T08:24:11;11.27;;;9.43;;
55784;SDS011;41709;52.536;5.688;2023-06-22T08:26:37;12.40;;;10.98;;
55784;SDS011;41709;52.536;5.688;2023-06-22T08:29:03;13.52;;;10.23;;
55784;SDS011;41709;52.536;5.688;2023-06-22T08:31:29;13.80;;;10.10;;
55784;SDS011;41709;52.536;5.688;2023-06-22T08:33:55;14.70;;;11.48;;
55784;SDS011;41709;52.536;5.688;2023-06-22T08:36:21;15.40;;;11.73;;
55784;SDS011;41709;52.536;5.688;2023-06-22T08:38:47;13.93;;;11.00;;
55784;SDS011;41709;52.536;5.688;2023-06-22T08:41:16;21.15;;;12.57;;
55784;SDS011;41709;52.536;5.688;2023-06-22T08:43:42;16.27;;;12.45;;
55784;SDS011;41709;52.536;5.688;2023-06-22T08:46:09;15.30;;;11.63;;
55784;SDS011;41709;52.536;5.688;2023-06-22T08:48:35;15.75;;;11.00;;
55784;SDS011;41709;52.536;5.688;2023-06-22T08:51:01;14.88;;;11.90;;
55784;SDS011;41709;52.536;5.688;2023-06-22T08:53:28;16.77;;;11.48;;
55784;SDS011;41709;52.536;5.688;2023-06-22T08:55:53;13.45;;;11.55;;
55784;SDS011;41709;52.536;5.688;2023-06-22T08:58:19;18.05;;;11.70;;
55784;SDS011;41709;52.536;5.688;2023-06-22T09:00:46;12.85;;;10.20;;
55784;SDS011;41709;52.536;5.688;2023-06-22T09:03:12;15.00;;;11.52;;
55784;SDS011;41709;52.536;5.688;2023-06-22T09:05:37;13.95;;;11.68;;
55784;SDS011;41709;52.536;5.688;2023-06-22T09:08:03;12.65;;;11.32;;
55784;SDS011;41709;52.536;5.688;2023-06-22T09:10:29;13.60;;;11.02;;
55784;SDS011;41709;52.536;5.688;2023-06-22T09:12:54;14.40;;;11.23;;
55784;SDS011;41709;52.536;5.688;2023-06-22T09:15:21;15.02;;;12.65;;
55784;SDS011;41709;52.536;5.688;2023-06-22T09:17:47;14.90;;;11.68;;
55784;SDS011;41709;52.536;5.688;2023-06-22T09:20:13;15.88;;;11.55;;
55784;SDS011;41709;52.536;5.688;2023-06-22T09:22:38;15.43;;;11.60;;
55784;SDS011;41709;52.536;5.688;2023-06-22T09:25:04;16.30;;;11.27;;
55784;SDS011;41709;52.536;5.688;2023-06-22T09:27:30;15.70;;;10.85;;
55784;SDS011;41709;52.536;5.688;2023-06-22T09:29:55;16.40;;;12.18;;
55784;SDS011;41709;52.536;5.688;2023-06-22T09:32:23;16.42;;;12.38;;
55784;SDS011;41709;52.536;5.688;2023-06-22T09:34:50;15.25;;;12.48;;
55784;SDS011;41709;52.536;5.688;2023-06-22T09:37:15;11.65;;;10.23;;
55784;SDS011;41709;52.536;5.688;2023-06-22T09:39:41;12.27;;;10.50;;
55784;SDS011;41709;52.536;5.688;2023-06-22T09:42:07;15.52;;;11.38;;
55784;SDS011;41709;52.536;5.688;2023-06-22T09:44:33;17.83;;;12.88;;
55784;SDS011;41709;52.536;5.688;2023-06-22T09:46:58;15.02;;;10.60;;
55784;SDS011;41709;52.536;5.688;2023-06-22T09:49:24;16.50;;;11.27;;
55784;SDS011;41709;52.536;5.688;2023-06-22T09:51:49;14.75;;;11.07;;
55784;SDS011;41709;52.536;5.688;2023-06-22T09:54:16;14.77;;;10.07;;
55784;SDS011;41709;52.536;5.688;2023-06-22T09:56:41;12.45;;;10.55;;
55784;SDS011;41709;52.536;5.688;2023-06-22T09:59:07;11.77;;;9.82;;
55784;SDS011;41709;52.536;5.688;2023-06-22T10:01:32;12.15;;;9.80;;
55784;SDS011;41709;52.536;5.688;2023-06-22T10:03:58;14.38;;;9.55;;
55784;SDS011;41709;52.536;5.688;2023-06-22T10:06:24;12.45;;;9.98;;
55784;SDS011;41709;52.536;5.688;2023-06-22T10:08:50;10.32;;;8.57;;
55784;SDS011;41709;52.536;5.688;2023-06-22T10:11:16;9.68;;;8.55;;
55784;SDS011;41709;52.536;5.688;2023-06-22T10:13:42;12.57;;;9.25;;
55784;SDS011;41709;52.536;5.688;2023-06-22T10:16:08;10.75;;;8.07;;
55784;SDS011;41709;52.536;5.688;2023-06-22T10:18:33;10.65;;;7.80;;
55784;SDS011;41709;52.536;5.688;2023-06-22T10:20:59;11.43;;;8.27;;
55784;SDS011;41709;52.536;5.688;2023-06-22T10:23:25;9.10;;;7.45;;
55784;SDS011;41709;52.536;5.688;2023-06-22T10:25:51;8.55;;;7.13;;
55784;SDS011;41709;52.536;5.688;2023-06-22T10:28:16;7.60;;;6.35;;
55784;SDS011;41709;52.536;5.688;2023-06-22T10:30:42;9.15;;;8.05;;
55784;SDS011;41709;52.536;5.688;2023-06-22T10:33:08;10.93;;;8.25;;
55784;SDS011;41709;52.536;5.688;2023-06-22T10:35:35;9.48;;;7.05;;
55784;SDS011;41709;52.536;5.688;2023-06-22T10:38:02;11.43;;;7.93;;
55784;SDS011;41709;52.536;5.688;2023-06-22T10:40:28;9.15;;;7.00;;
55784;SDS011;41709;52.536;5.688;2023-06-22T10:42:54;10.60;;;6.80;;
55784;SDS011;41709;52.536;5.688;2023-06-22T10:45:20;10.27;;;8.18;;
55784;SDS011;41709;52.536;5.688;2023-06-22T10:47:46;11.82;;;8.13;;
55784;SDS011;41709;52.536;5.688;2023-06-22T10:50:11;10.40;;;8.10;;
55784;SDS011;41709;52.536;5.688;2023-06-22T10:52:37;8.57;;;7.15;;
55784;SDS011;41709;52.536;5.688;2023-06-22T10:55:03;7.25;;;6.50;;
55784;SDS011;41709;52.536;5.688;2023-06-22T10:57:29;12.43;;;6.57;;
55784;SDS011;41709;52.536;5.688;2023-06-22T10:59:55;9.25;;;6.75;;
55784;SDS011;41709;52.536;5.688;2023-06-22T11:02:20;8.88;;;6.68;;
55784;SDS011;41709;52.536;5.688;2023-06-22T11:04:46;8.65;;;7.15;;
55784;SDS011;41709;52.536;5.688;2023-06-22T11:07:12;8.05;;;6.32;;
55784;SDS011;41709;52.536;5.688;2023-06-22T11:09:38;7.97;;;6.22;;
55784;SDS011;41709;52.536;5.688;2023-06-22T11:12:04;7.57;;;5.50;;
55784;SDS011;41709;52.536;5.688;2023-06-22T11:14:30;9.27;;;5.80;;
55784;SDS011;41709;52.536;5.688;2023-06-22T11:16:58;7.68;;;5.32;;
55784;SDS011;41709;52.536;5.688;2023-06-22T11:19:24;6.65;;;5.43;;
55784;SDS011;41709;52.536;5.688;2023-06-22T11:21:49;6.03;;;4.95;;
55784;SDS011;41709;52.536;5.688;2023-06-22T11:24:15;6.60;;;5.40;;
55784;SDS011;41709;52.536;5.688;2023-06-22T11:26:41;7.40;;;5.47;;
55784;SDS011;41709;52.536;5.688;2023-06-22T11:29:07;6.95;;;5.22;;
55784;SDS011;41709;52.536;5.688;2023-06-22T11:31:33;7.63;;;5.68;;
55784;SDS011;41709;52.536;5.688;2023-06-22T11:33:59;7.07;;;5.18;;
55784;SDS011;41709;52.536;5.688;2023-06-22T11:36:25;7.57;;;5.78;;
55784;SDS011;41709;52.536;5.688;2023-06-22T11:38:51;7.18;;;4.82;;
55784;SDS011;41709;52.536;5.688;2023-06-22T11:41:17;12.48;;;5.30;;
55784;SDS011;41709;52.536;5.688;2023-06-22T11:43:42;5.60;;;4.53;;
55784;SDS011;41709;52.536;5.688;2023-06-22T11:46:08;7.85;;;5.45;;
55784;SDS011;41709;52.536;5.688;2023-06-22T11:48:34;7.10;;;4.97;;
55784;SDS011;41709;52.536;5.688;2023-06-22T11:51:00;5.18;;;4.68;;
55784;SDS011;41709;52.536;5.688;2023-06-22T11:53:27;7.03;;;5.55;;
55784;SDS011;41709;52.536;5.688;2023-06-22T11:55:53;6.72;;;5.55;;
55784;SDS011;41709;52.536;5.688;2023-06-22T11:58:20;6.80;;;5.25;;
55784;SDS011;41709;52.536;5.688;2023-06-22T12:00:45;7.47;;;5.25;;
55784;SDS011;41709;52.536;5.688;2023-06-22T12:03:11;7.90;;;5.65;;
55784;SDS011;41709;52.536;5.688;2023-06-22T12:05:37;8.60;;;5.50;;
55784;SDS011;41709;52.536;5.688;2023-06-22T12:08:03;5.80;;;5.22;;
55784;SDS011;41709;52.536;5.688;2023-06-22T12:10:29;6.47;;;4.85;;
55784;SDS011;41709;52.536;5.688;2023-06-22T12:12:55;6.97;;;5.07;;
55784;SDS011;41709;52.536;5.688;2023-06-22T12:15:22;9.93;;;6.18;;
55784;SDS011;41709;52.536;5.688;2023-06-22T12:17:48;6.20;;;5.10;;
55784;SDS011;41709;52.536;5.688;2023-06-22T12:20:13;7.43;;;5.60;;
55784;SDS011;41709;52.536;5.688;2023-06-22T12:22:40;8.00;;;5.47;;
55784;SDS011;41709;52.536;5.688;2023-06-22T12:25:06;10.82;;;5.85;;
55784;SDS011;41709;52.536;5.688;2023-06-22T12:27:33;8.85;;;5.97;;
55784;SDS011;41709;52.536;5.688;2023-06-22T12:29:59;6.25;;;5.63;;
55784;SDS011;41709;52.536;5.688;2023-06-22T12:32:25;7.35;;;6.13;;
55784;SDS011;41709;52.536;5.688;2023-06-22T12:34:51;5.70;;;4.75;;
55784;SDS011;41709;52.536;5.688;2023-06-22T12:37:17;8.48;;;6.68;;
55784;SDS011;41709;52.536;5.688;2023-06-22T12:39:43;9.02;;;7.50;;
55784;SDS011;41709;52.536;5.688;2023-06-22T12:42:08;8.18;;;7.35;;
55784;SDS011;41709;52.536;5.688;2023-06-22T12:44:37;11.80;;;6.75;;
55784;SDS011;41709;52.536;5.688;2023-06-22T12:47:03;7.15;;;6.38;;
55784;SDS011;41709;52.536;5.688;2023-06-22T12:49:29;8.82;;;6.47;;
55784;SDS011;41709;52.536;5.688;2023-06-22T12:51:55;8.85;;;6.68;;
55784;SDS011;41709;52.536;5.688;2023-06-22T12:54:20;6.18;;;5.55;;
55784;SDS011;41709;52.536;5.688;2023-06-22T12:56:46;9.07;;;6.65;;
55784;SDS011;41709;52.536;5.688;2023-06-22T12:59:12;6.40;;;5.72;;
55784;SDS011;41709;52.536;5.688;2023-06-22T13:01:37;7.30;;;5.72;;
55784;SDS011;41709;52.536;5.688;2023-06-22T13:04:03;7.75;;;6.15;;
55784;SDS011;41709;52.536;5.688;2023-06-22T13:06:29;9.77;;;6.53;;
55784;SDS011;41709;52.536;5.688;2023-06-22T13:08:54;6.60;;;5.90;;
55784;SDS011;41709;52.536;5.688;2023-06-22T13:11:20;6.90;;;6.10;;
55784;SDS011;41709;52.536;5.688;2023-06-22T13:13:46;8.93;;;6.80;;
55784;SDS011;41709;52.536;5.688;2023-06-22T13:16:12;7.28;;;6.57;;
55784;SDS011;41709;52.536;5.688;2023-06-22T13:18:37;7.38;;;6.20;;
55784;SDS011;41709;52.536;5.688;2023-06-22T13:21:03;7.78;;;6.45;;
55784;SDS011;41709;52.536;5.688;2023-06-22T13:23:29;9.15;;;6.88;;
55784;SDS011;41709;52.536;5.688;2023-06-22T13:25:54;8.02;;;6.93;;
55784;SDS011;41709;52.536;5.688;2023-06-22T13:28:20;7.25;;;6.50;;
55784;SDS011;41709;52.536;5.688;2023-06-22T13:30:46;7.25;;;6.55;;
55784;SDS011;41709;52.536;5.688;2023-06-22T13:33:15;7.50;;;6.10;;
55784;SDS011;41709;52.536;5.688;2023-06-22T13:35:41;9.38;;;7.15;;
55784;SDS011;41709;52.536;5.688;2023-06-22T13:38:08;7.22;;;6.53;;
55784;SDS011;41709;52.536;5.688;2023-06-22T13:40:34;9.88;;;7.43;;
55784;SDS011;41709;52.536;5.688;2023-06-22T13:43:00;8.35;;;6.45;;
55784;SDS011;41709;52.536;5.688;2023-06-22T13:45:26;9.70;;;6.75;;
55784;SDS011;41709;52.536;5.688;2023-06-22T13:47:51;8.00;;;6.82;;
55784;SDS011;41709;52.536;5.688;2023-06-22T13:50:17;7.68;;;6.88;;
55784;SDS011;41709;52.536;5.688;2023-06-22T13:52:43;8.90;;;7.03;;
55784;SDS011;41709;52.536;5.688;2023-06-22T13:55:08;8.25;;;6.90;;
55784;SDS011;41709;52.536;5.688;2023-06-22T13:57:34;8.48;;;6.90;;
55784;SDS011;41709;52.536;5.688;2023-06-22T14:00:01;14.32;;;7.13;;
55784;SDS011;41709;52.536;5.688;2023-06-22T14:02:28;9.85;;;6.80;;
55784;SDS011;41709;52.536;5.688;2023-06-22T14:04:54;8.93;;;6.60;;
55784;SDS011;41709;52.536;5.688;2023-06-22T14:07:19;8.90;;;6.80;;
55784;SDS011;41709;52.536;5.688;2023-06-22T14:09:46;9.30;;;6.65;;
55784;SDS011;41709;52.536;5.688;2023-06-22T14:12:11;8.60;;;7.00;;
55784;SDS011;41709;52.536;5.688;2023-06-22T14:14:37;11.32;;;7.50;;
55784;SDS011;41709;52.536;5.688;2023-06-22T14:17:04;9.10;;;6.97;;
55784;SDS011;41709;52.536;5.688;2023-06-22T14:19:30;10.13;;;7.15;;
55784;SDS011;41709;52.536;5.688;2023-06-22T14:21:55;10.23;;;7.45;;
55784;SDS011;41709;52.536;5.688;2023-06-22T14:24:22;8.35;;;7.20;;
55784;SDS011;41709;52.536;5.688;2023-06-22T14:26:48;9.93;;;7.53;;
55784;SDS011;41709;52.536;5.688;2023-06-22T14:29:14;8.18;;;7.32;;
55784;SDS011;41709;52.536;5.688;2023-06-22T14:31:39;8.60;;;7.25;;
55784;SDS011;41709;52.536;5.688;2023-06-22T14:34:05;9.00;;;7.55;;